Time;durP1;ratioP1;P1;durP2;ratioP2;P2;SDS_P1;SDS_P2;PMS_P1;PMS_P2;Temp;Humidity;BMP_temperature;BMP_pressure;BME280_temperature;BME280_humidity;BME280_pressure;Samples;Min_cycle;Max_cycle;Signal;HPM_P1;HPM_P2
2021/05/26 00:01:39;;;;;;;4.97;2.60;;;;;;;10.35;72.47;100075.72;5073825;28;20063;-64
2021/05/26 00:04:08;;;;;;;4.03;2.67;;;;;;;10.37;72.92;100069.81;5073668;28;20052;-64
2021/05/26 00:06:35;;;;;;;5.43;2.75;;;;;;;10.35;72.98;100064.59;5073416;28;20063;-64
2021/05/26 00:09:02;;;;;;;5.70;2.70;;;;;;;10.27;73.19;100058.97;5073485;28;20067;-64
2021/05/26 00:11:30;;;;;;;4.22;2.60;;;;;;;10.24;73.21;100054.03;5073170;28;20052;-64
2021/05/26 00:13:57;;;;;;;4.30;2.55;;;;;;;10.16;73.43;100048.13;5073655;28;20401;-64
2021/05/26 00:16:25;;;;;;;6.43;2.65;;;;;;;10.13;73.39;100053.50;5072885;28;20409;-64
2021/05/26 00:18:52;;;;;;;4.18;2.78;;;;;;;10.07;74.18;100054.78;5073387;28;20061;-64
2021/05/26 00:21:22;;;;;;;6.10;2.90;;;;;;;10.02;74.39;100052.16;5073072;28;20482;-64
2021/05/26 00:23:49;;;;;;;5.72;2.55;;;;;;;9.93;73.96;100052.94;5072521;28;20049;-64
2021/05/26 00:26:16;;;;;;;5.63;3.20;;;;;;;9.89;74.45;100056.66;5072518;28;20044;-64
2021/05/26 00:28:45;;;;;;;5.47;2.92;;;;;;;9.83;74.35;100056.00;5073506;28;20052;-64
2021/05/26 00:31:13;;;;;;;6.30;3.50;;;;;;;9.77;74.56;100053.69;5073140;28;20053;-64
2021/05/26 00:33:40;;;;;;;5.35;3.15;;;;;;;9.73;74.74;100051.53;5072884;28;20048;-64
2021/05/26 00:36:07;;;;;;;6.70;3.70;;;;;;;9.70;74.92;100041.06;5073327;28;20053;-64
2021/05/26 00:38:33;;;;;;;7.40;3.38;;;;;;;9.75;75.02;100049.25;5072875;28;20068;-64
2021/05/26 00:41:00;;;;;;;8.55;3.85;;;;;;;9.77;74.72;100048.13;5073111;28;20053;-64
2021/05/26 00:43:27;;;;;;;5.43;3.22;;;;;;;9.72;74.46;100044.34;5072673;28;20049;-64
2021/05/26 00:45:54;;;;;;;6.07;3.78;;;;;;;9.71;75.20;100045.47;5073302;28;20041;-64
2021/05/26 00:48:22;;;;;;;9.10;3.50;;;;;;;9.70;75.09;100043.00;5072711;28;20056;-65
2021/05/26 00:50:49;;;;;;;5.43;3.35;;;;;;;9.69;75.14;100047.75;5073078;28;20052;-65
2021/05/26 00:53:16;;;;;;;6.07;4.10;;;;;;;9.67;75.14;100041.66;5072654;28;20071;-64
2021/05/26 00:55:43;;;;;;;7.75;3.88;;;;;;;9.71;75.30;100039.91;5082497;28;20056;-64
2021/05/26 00:58:11;;;;;;;7.20;3.80;;;;;;;9.77;74.79;100042.56;5072376;28;20482;-64
2021/05/26 01:00:40;;;;;;;5.63;4.20;;;;;;;9.85;74.85;100036.19;5073243;28;20056;-65
2021/05/26 01:03:07;;;;;;;6.80;4.13;;;;;;;9.89;74.46;100038.03;5072910;28;20387;-64
2021/05/26 01:05:35;;;;;;;7.82;4.05;;;;;;;9.89;74.24;100032.47;5072620;28;20820;-66
2021/05/26 01:08:02;;;;;;;6.15;3.70;;;;;;;9.96;73.95;100032.00;5072718;28;20055;-64
2021/05/26 01:10:31;;;;;;;7.20;3.85;;;;;;;9.94;73.73;100025.94;5072591;28;20048;-64
2021/05/26 01:12:58;;;;;;;5.63;4.00;;;;;;;9.90;73.63;100017.41;5072633;28;20056;-64
2021/05/26 01:15:27;;;;;;;8.07;4.30;;;;;;;9.86;73.74;100015.59;5072403;28;20052;-64
2021/05/26 01:17:54;;;;;;;6.05;3.95;;;;;;;9.83;74.16;100011.50;5072561;28;20071;-64
2021/05/26 01:20:25;;;;;;;6.57;4.10;;;;;;;9.77;73.92;100006.41;5072370;28;20056;-65
2021/05/26 01:22:54;;;;;;;6.88;4.22;;;;;;;9.69;74.07;100005.22;5072580;28;20052;-64
2021/05/26 01:25:21;;;;;;;7.00;4.20;;;;;;;9.64;74.09;100003.41;5072646;28;20507;-64
2021/05/26 01:27:48;;;;;;;9.20;4.45;;;;;;;9.62;74.07;99997.34;5072411;28;20465;-64
2021/05/26 01:30:16;;;;;;;7.55;4.35;;;;;;;9.58;74.64;100001.88;5072166;28;20433;-64
2021/05/26 01:32:45;;;;;;;6.50;3.88;;;;;;;9.58;74.66;99998.28;5072375;28;20406;-65
2021/05/26 01:35:14;;;;;;;9.18;4.05;;;;;;;9.50;75.02;99988.75;5072511;28;20059;-65
2021/05/26 01:37:44;;;;;;;8.48;4.63;;;;;;;9.47;75.08;99997.72;5072432;28;20063;-65
2021/05/26 01:40:14;;;;;;;8.00;4.10;;;;;;;9.40;74.78;99997.38;5072914;28;20048;-65
2021/05/26 01:42:41;;;;;;;6.53;4.15;;;;;;;9.35;74.92;99990.81;5073660;28;20474;-65
2021/05/26 01:45:10;;;;;;;7.97;3.65;;;;;;;9.31;74.97;100000.09;5075713;28;20066;-65
2021/05/26 01:47:37;;;;;;;10.30;4.97;;;;;;;9.23;75.16;99979.44;5076241;28;20057;-65
2021/05/26 01:50:06;;;;;;;8.02;4.32;;;;;;;9.14;75.83;99984.13;5075988;28;20056;-65
2021/05/26 01:52:33;;;;;;;7.18;4.25;;;;;;;9.12;76.20;99989.19;5076818;28;20056;-65
2021/05/26 01:55:01;;;;;;;10.10;4.00;;;;;;;9.08;76.21;99986.22;5075687;28;20060;-65
2021/05/26 01:57:29;;;;;;;12.13;5.10;;;;;;;9.08;76.66;99989.00;5075930;28;20055;-65
2021/05/26 01:59:56;;;;;;;7.55;4.22;;;;;;;9.08;76.62;99996.50;5075875;28;20064;-65
2021/05/26 02:02:23;;;;;;;9.95;4.63;;;;;;;9.08;76.24;99990.97;5076050;28;20053;-65
2021/05/26 02:04:51;;;;;;;11.57;5.10;;;;;;;9.08;76.95;99989.00;5076175;28;20056;-65
2021/05/26 02:07:18;;;;;;;11.38;4.60;;;;;;;9.13;76.46;99988.03;5076022;28;20064;-65
2021/05/26 02:09:45;;;;;;;9.52;4.22;;;;;;;9.16;76.56;99976.31;5076084;28;20489;-65
2021/05/26 02:12:22;;;;;;;10.50;4.82;;;;;;;9.25;76.36;99982.72;5075031;28;20060;-65
2021/05/26 02:14:52;;;;;;;10.57;4.20;;;;;;;9.36;76.02;99969.38;5075756;28;20044;-65
2021/05/26 02:17:19;;;;;;;8.73;4.72;;;;;;;9.45;75.90;99970.25;5076103;28;20071;-65
2021/05/26 02:19:46;;;;;;;10.70;4.45;;;;;;;9.59;75.75;99967.38;5075389;28;20056;-65
2021/05/26 02:22:13;;;;;;;10.95;4.90;;;;;;;9.67;75.34;99966.59;5075954;28;20063;-65
2021/05/26 02:24:41;;;;;;;6.32;3.70;;;;;;;9.75;74.93;99965.81;5074889;28;20410;-65
2021/05/26 02:27:08;;;;;;;8.68;4.32;;;;;;;9.83;74.84;99957.84;5075712;28;20055;-66
2021/05/26 02:29:35;;;;;;;5.75;4.00;;;;;;;9.89;74.44;99965.69;5075498;28;20482;-65
2021/05/26 02:32:04;;;;;;;11.73;4.47;;;;;;;9.97;74.51;99961.28;5076408;28;20060;-65
2021/05/26 02:34:34;;;;;;;13.13;4.75;;;;;;;10.02;74.27;99961.16;5075323;28;20123;-67
2021/05/26 02:37:01;;;;;;;7.20;3.97;;;;;;;10.08;73.83;99957.09;5075092;28;20053;-65
2021/05/26 02:39:28;;;;;;;15.48;5.47;;;;;;;10.14;73.67;99954.94;5074960;28;20055;-66
2021/05/26 02:41:55;;;;;;;10.15;4.57;;;;;;;10.14;73.29;99954.94;5076030;28;20052;-65
2021/05/26 02:44:22;;;;;;;9.32;5.18;;;;;;;10.18;73.69;99950.38;5075179;28;20049;-65
2021/05/26 02:46:49;;;;;;;9.63;4.93;;;;;;;10.18;73.31;99938.44;5075185;28;20063;-65
2021/05/26 02:49:16;;;;;;;10.05;5.15;;;;;;;10.22;73.85;99944.97;5075027;28;20052;-65
2021/05/26 02:51:43;;;;;;;10.35;5.00;;;;;;;10.25;73.72;99944.34;5075220;28;20060;-65
2021/05/26 02:54:10;;;;;;;9.98;5.18;;;;;;;10.28;73.35;99933.38;5076251;28;20048;-65
2021/05/26 02:56:37;;;;;;;13.27;5.90;;;;;;;10.23;73.53;99935.50;5088237;28;20045;-65
2021/05/26 02:59:07;;;;;;;11.82;5.10;;;;;;;10.14;73.42;99929.91;5074715;28;20048;-65
2021/05/26 03:01:34;;;;;;;15.63;6.03;;;;;;;10.08;74.20;99939.53;5075640;28;20056;-65
2021/05/26 03:04:01;;;;;;;8.95;5.28;;;;;;;10.08;74.11;99928.41;5074954;28;20053;-65
2021/05/26 03:06:32;;;;;;;14.02;5.45;;;;;;;10.11;73.80;99923.03;5075033;28;20053;-65
2021/05/26 03:08:59;;;;;;;11.48;5.65;;;;;;;10.13;73.83;99925.50;5075104;28;20048;-65
2021/05/26 03:11:25;;;;;;;10.57;5.18;;;;;;;10.18;73.95;99916.16;5075355;28;20044;-65
2021/05/26 03:13:52;;;;;;;9.52;5.07;;;;;;;10.22;73.64;99922.72;5074460;28;20055;-65
2021/05/26 03:16:19;;;;;;;11.73;5.82;;;;;;;10.19;73.71;99909.47;5074761;28;20053;-65
2021/05/26 03:18:47;;;;;;;15.50;5.53;;;;;;;10.14;73.67;99915.97;5074502;28;20060;-65
2021/05/26 03:21:14;;;;;;;14.80;5.55;;;;;;;10.20;73.42;99914.69;5074704;28;20485;-65
2021/05/26 03:23:43;;;;;;;12.73;5.72;;;;;;;10.16;73.35;99927.59;5075317;28;20052;-65
2021/05/26 03:26:10;;;;;;;13.67;5.93;;;;;;;10.19;73.29;99915.03;5074502;28;20505;-65
2021/05/26 03:28:38;;;;;;;11.65;5.15;;;;;;;10.20;73.46;99909.13;5073864;28;20056;-65
2021/05/26 03:31:05;;;;;;;13.60;5.40;;;;;;;10.23;73.21;99908.47;5074624;28;20056;-65
2021/05/26 03:33:34;;;;;;;10.07;4.63;;;;;;;10.29;73.50;99915.56;5074338;28;20052;-65
2021/05/26 03:36:04;;;;;;;10.25;5.75;;;;;;;10.25;72.67;99910.94;5074235;28;20045;-65
2021/05/26 03:38:31;;;;;;;14.73;5.55;;;;;;;10.31;72.66;99915.22;5074501;28;20055;-65
2021/05/26 03:40:59;;;;;;;12.13;5.78;;;;;;;10.38;72.96;99912.78;5073991;28;20056;-67
2021/05/26 03:43:26;;;;;;;11.93;5.55;;;;;;;10.42;72.75;99916.56;5074260;28;20064;-67
2021/05/26 03:45:53;;;;;;;10.90;5.40;;;;;;;10.53;72.49;99917.84;5074098;28;20052;-67
2021/05/26 03:48:19;;;;;;;13.55;5.70;;;;;;;10.55;72.33;99918.34;5073764;28;20048;-66
2021/05/26 03:50:46;;;;;;;13.05;5.55;;;;;;;10.63;71.58;99915.91;5074024;28;20492;-67
2021/05/26 03:53:13;;;;;;;11.88;6.38;;;;;;;10.63;71.86;99918.69;5074756;28;20044;-67
2021/05/26 03:55:40;;;;;;;13.13;5.60;;;;;;;10.73;71.67;99909.97;5073055;28;20083;-65
2021/05/26 03:58:08;;;;;;;12.20;5.30;;;;;;;10.77;71.33;99919.31;5073718;28;20064;-65
2021/05/26 04:00:35;;;;;;;11.18;5.53;;;;;;;10.80;71.43;99910.31;5074061;28;20051;-65
2021/05/26 04:03:02;;;;;;;12.23;5.50;;;;;;;10.84;71.18;99911.28;5073879;28;20056;-65
2021/05/26 04:05:29;;;;;;;10.63;5.25;;;;;;;10.82;70.71;99927.50;5073427;28;20063;-65
2021/05/26 04:07:56;;;;;;;11.05;5.80;;;;;;;10.81;70.71;99905.53;5072989;28;20056;-65
2021/05/26 04:10:23;;;;;;;16.40;6.38;;;;;;;10.89;71.23;99916.66;5072975;28;20055;-65
2021/05/26 04:12:50;;;;;;;13.50;5.60;;;;;;;10.94;71.21;99915.66;5073171;28;20055;-65
2021/05/26 04:15:18;;;;;;;9.93;5.13;;;;;;;11.02;70.99;99912.06;5072913;28;20052;-66
2021/05/26 04:17:45;;;;;;;9.50;5.00;;;;;;;11.07;70.58;99908.28;5073045;28;20170;-65
2021/05/26 04:20:12;;;;;;;10.50;5.75;;;;;;;11.11;70.57;99907.28;5073295;28;20410;-65
2021/05/26 04:22:39;;;;;;;13.10;6.40;;;;;;;11.21;70.86;99910.88;5073210;28;20056;-65
2021/05/26 04:25:08;;;;;;;10.23;6.13;;;;;;;11.27;70.37;99907.56;5072010;28;20051;-65
2021/05/26 04:27:35;;;;;;;10.40;5.47;;;;;;;11.31;70.16;99905.75;5073239;28;20060;-65
2021/05/26 04:30:04;;;;;;;12.10;5.47;;;;;;;11.31;70.04;99914.09;5073393;28;20055;-66
2021/05/26 04:32:33;;;;;;;9.85;5.72;;;;;;;11.32;70.19;99903.78;5073262;28;20053;-67
2021/05/26 04:35:00;;;;;;;12.82;5.45;;;;;;;11.33;69.78;99906.22;5072792;28;20048;-65
2021/05/26 04:37:27;;;;;;;9.85;5.65;;;;;;;11.30;69.59;99903.31;5073069;28;20057;-65
2021/05/26 04:39:54;;;;;;;9.90;5.68;;;;;;;11.25;69.92;99898.72;5071938;28;20052;-66
2021/05/26 04:42:21;;;;;;;8.70;4.93;;;;;;;11.32;69.24;99898.22;5072979;28;20045;-66
2021/05/26 04:44:48;;;;;;;6.75;4.15;;;;;;;11.26;68.62;99899.56;5072728;28;20060;-66
2021/05/26 04:47:15;;;;;;;7.80;4.30;;;;;;;11.24;69.42;99897.09;5073048;28;20052;-66
2021/05/26 04:49:42;;;;;;;9.35;4.72;;;;;;;11.25;69.49;99898.72;5073037;28;20048;-67
2021/05/26 04:52:09;;;;;;;9.05;4.18;;;;;;;11.15;69.18;99899.91;5072357;28;20052;-66
2021/05/26 04:54:36;;;;;;;7.32;4.50;;;;;;;11.17;68.85;99913.50;5078134;28;20056;-66
2021/05/26 04:57:03;;;;;;;7.13;3.75;;;;;;;11.13;69.34;99905.00;5082196;28;20044;-66
2021/05/26 04:59:33;;;;;;;8.10;4.43;;;;;;;11.07;70.35;99914.69;5072229;28;20052;-66
2021/05/26 05:02:00;;;;;;;7.20;3.95;;;;;;;11.10;70.49;99910.41;5072677;28;20083;-67
2021/05/26 05:04:27;;;;;;;12.48;4.63;;;;;;;11.09;70.98;99900.41;5072691;28;20048;-66
2021/05/26 05:06:57;;;;;;;8.00;4.88;;;;;;;11.06;72.05;99901.06;5072415;28;20456;-66
2021/05/26 05:09:24;;;;;;;10.18;5.40;;;;;;;11.00;71.98;99900.41;5072713;28;20052;-66
2021/05/26 05:11:51;;;;;;;9.15;5.45;;;;;;;10.99;71.79;99896.00;5072907;28;20055;-66
2021/05/26 05:14:18;;;;;;;8.98;5.82;;;;;;;10.99;73.03;99901.59;5072402;28;20071;-66
2021/05/26 05:16:45;;;;;;;11.50;6.63;;;;;;;11.10;72.49;99902.03;5072278;28;20166;-66
2021/05/26 05:19:12;;;;;;;12.88;6.93;;;;;;;11.15;72.99;99905.47;5072576;28;20053;-66
2021/05/26 05:21:39;;;;;;;11.60;6.60;;;;;;;11.17;72.67;99903.19;5072662;28;20045;-66
2021/05/26 05:24:07;;;;;;;15.48;8.02;;;;;;;11.01;74.53;99906.84;5072983;28;20052;-66
2021/05/26 05:26:34;;;;;;;13.43;9.65;;;;;;;10.91;76.61;99910.78;5071892;28;20049;-66
2021/05/26 05:29:01;;;;;;;14.45;9.10;;;;;;;10.79;76.72;99907.84;5072050;28;20385;-66
2021/05/26 05:31:31;;;;;;;13.57;7.78;;;;;;;10.72;74.79;99902.78;5075684;28;20059;-66
2021/05/26 05:33:57;;;;;;;11.27;7.05;;;;;;;10.70;74.82;99908.66;5075925;28;20052;-66
2021/05/26 05:36:27;;;;;;;9.88;6.60;;;;;;;10.80;74.44;99904.72;5072016;28;20056;-67
2021/05/26 05:38:54;;;;;;;12.98;8.60;;;;;;;11.01;74.90;99898.47;5072153;28;20048;-67
2021/05/26 05:41:21;;;;;;;13.82;7.35;;;;;;;11.18;73.84;99887.25;5071963;28;20059;-67
2021/05/26 05:43:48;;;;;;;9.23;6.72;;;;;;;11.35;73.60;99903.13;5071417;28;20048;-67
2021/05/26 05:46:15;;;;;;;8.00;6.32;;;;;;;11.36;72.49;99891.63;5078243;28;20045;-67
2021/05/26 05:48:42;;;;;;;8.00;5.53;;;;;;;11.36;71.30;99893.59;5072120;28;20056;-67
2021/05/26 05:51:09;;;;;;;8.27;4.95;;;;;;;11.40;71.30;99890.94;5071578;28;20405;-67
2021/05/26 05:53:36;;;;;;;10.38;5.65;;;;;;;11.38;70.98;99897.69;5072124;28;20056;-67
2021/05/26 05:56:05;;;;;;;7.97;4.38;;;;;;;11.46;70.28;99887.63;5089264;28;20063;-67
2021/05/26 05:58:33;;;;;;;7.93;4.22;;;;;;;11.61;69.34;99891.03;5087492;28;20056;-67
2021/05/26 06:01:01;;;;;;;9.50;4.47;;;;;;;11.64;68.91;99887.56;5070389;28;21541;-67
2021/05/26 06:03:28;;;;;;;4.57;2.95;;;;;;;11.64;67.72;99891.19;5066660;28;20521;-67
2021/05/26 06:05:57;;;;;;;6.53;3.65;;;;;;;11.71;67.90;99883.09;5071954;28;20053;-67
2021/05/26 06:08:24;;;;;;;6.93;3.88;;;;;;;11.95;68.56;99876.09;5071082;28;20055;-67
2021/05/26 06:10:51;;;;;;;8.48;3.47;;;;;;;12.14;68.04;99868.06;5069957;28;20051;-67
2021/05/26 06:13:17;;;;;;;3.63;2.72;;;;;;;12.36;66.12;99866.09;5068018;28;20048;-67
2021/05/26 06:15:45;;;;;;;4.20;2.72;;;;;;;12.46;65.63;99870.47;5067168;28;20049;-67
2021/05/26 06:18:12;;;;;;;6.53;2.70;;;;;;;12.54;65.11;99864.78;5072063;28;20049;-67
2021/05/26 06:20:39;;;;;;;5.43;2.58;;;;;;;12.64;65.49;99863.56;5071348;28;20048;-67
2021/05/26 06:23:06;;;;;;;4.35;2.30;;;;;;;12.61;64.56;99869.00;5071407;28;20497;-67
2021/05/26 06:25:32;;;;;;;4.28;2.45;;;;;;;12.50;64.88;99865.81;5069435;28;20055;-67
2021/05/26 06:27:59;;;;;;;4.57;2.58;;;;;;;12.48;64.16;99860.56;5071335;28;20064;-67
2021/05/26 06:30:26;;;;;;;3.75;2.22;;;;;;;12.62;63.62;99863.09;5073799;28;20413;-67
2021/05/26 06:32:54;;;;;;;3.80;2.20;;;;;;;12.74;64.24;99857.53;5075220;28;20053;-65
2021/05/26 06:35:21;;;;;;;3.78;1.98;;;;;;;12.78;62.94;99860.44;5067704;28;20470;-65
2021/05/26 06:37:48;;;;;;;3.60;2.00;;;;;;;12.99;62.29;99857.59;5066348;28;20063;-66
2021/05/26 06:40:15;;;;;;;2.42;1.63;;;;;;;13.06;61.39;99849.47;5075212;28;20044;-66
2021/05/26 06:42:42;;;;;;;4.80;1.92;;;;;;;13.28;60.99;99853.81;5068225;28;20469;-65
2021/05/26 06:45:11;;;;;;;2.63;1.60;;;;;;;13.40;60.20;99858.63;5075080;28;20075;-66
2021/05/26 06:47:38;;;;;;;3.70;1.35;;;;;;;13.36;59.30;99849.31;5074988;28;20060;-65
2021/05/26 06:50:06;;;;;;;3.72;1.50;;;;;;;13.38;59.98;99853.38;5075088;28;20409;-65
2021/05/26 06:52:33;;;;;;;2.92;1.45;;;;;;;13.46;59.64;99851.66;5074943;28;20057;-66
2021/05/26 06:55:00;;;;;;;2.58;1.45;;;;;;;13.62;59.05;99853.75;5072728;28;20059;-63
2021/05/26 06:57:27;;;;;;;2.65;1.60;;;;;;;13.69;59.11;99846.41;5070424;28;20055;-63
2021/05/26 06:59:54;;;;;;;2.60;1.55;;;;;;;13.78;57.74;99849.88;5072656;28;20056;-63
2021/05/26 07:02:20;;;;;;;3.10;1.45;;;;;;;14.03;57.28;99844.25;5073763;28;20059;-63
2021/05/26 07:04:48;;;;;;;2.33;1.50;;;;;;;14.19;58.40;99853.56;5075728;28;20049;-63
2021/05/26 12:17:06;;;;;;;1.58;0.90;;;;;;;27.21;23.39;99704.81;5136538;27;20780;-76
2021/05/26 12:19:34;;;;;;;2.15;1.60;;;;;;;27.80;23.03;99708.56;5117833;22;20051;-64
2021/05/26 12:22:08;;;;;;;2.33;1.58;;;;;;;28.68;22.16;99700.69;5046645;28;20057;-64
2021/05/26 12:24:53;;;;;;;2.70;2.10;;;;;;;29.03;22.01;99707.34;5044280;28;20060;-65
2021/05/26 12:27:35;;;;;;;2.72;1.40;;;;;;;27.73;23.62;99703.88;5046577;28;20049;-64
2021/05/26 12:30:14;;;;;;;2.90;1.40;;;;;;;28.10;22.64;99707.34;5045057;28;20042;-64
2021/05/26 12:32:42;;;;;;;1.67;1.17;;;;;;;26.92;23.95;99688.38;5046808;28;20477;-64
2021/05/26 12:35:17;;;;;;;1.60;1.10;;;;;;;26.76;23.73;99703.47;5045909;28;20041;-64
2021/05/26 12:37:46;;;;;;;1.67;1.10;;;;;;;26.90;24.09;99694.56;5048117;28;20057;-64
2021/05/26 12:40:18;;;;;;;1.88;1.40;;;;;;;26.63;24.53;99691.94;5047845;28;20486;-65
2021/05/26 12:42:46;;;;;;;1.85;1.35;;;;;;;25.67;25.70;99700.44;5061706;28;20067;-64
2021/05/26 12:45:18;;;;;;;1.33;1.15;;;;;;;25.33;26.44;99690.09;5043043;28;20057;-65
2021/05/26 12:47:46;;;;;;;3.88;1.50;;;;;;;24.88;27.01;99684.69;5045420;28;20072;-64
2021/05/26 12:50:15;;;;;;;1.38;1.13;;;;;;;25.44;25.81;99687.03;5046171;28;20370;-64
2021/05/26 12:52:42;;;;;;;2.22;1.38;;;;;;;25.34;26.28;99685.97;5046790;28;20072;-64
2021/05/26 12:55:12;;;;;;;1.40;1.10;;;;;;;25.27;25.06;99694.66;5046848;28;20080;-64
2021/05/26 12:57:41;;;;;;;4.97;1.88;;;;;;;25.98;24.75;99671.75;5045461;28;20485;-64
2021/05/26 13:00:10;;;;;;;2.60;1.10;;;;;;;26.09;25.33;99675.16;5044615;28;20064;-64
2021/05/26 13:02:41;;;;;;;1.60;1.50;;;;;;;25.83;25.07;99677.72;5046118;28;20072;-64
2021/05/26 13:05:12;;;;;;;1.70;1.30;;;;;;;25.44;25.74;99682.13;5044235;28;20052;-64
2021/05/26 13:07:41;;;;;;;1.60;1.00;;;;;;;25.94;25.95;99682.44;5043952;28;20072;-64
2021/05/26 13:10:18;;;;;;;;;;;;;;;25.40;27.56;99666.34;5042424;28;20052;-64
2021/05/26 13:12:46;;;;;;;2.78;1.10;;;;;;;25.08;25.69;99677.03;5040256;28;19921;-64
2021/05/26 13:15:33;;;;;;;2.25;1.00;;;;;;;23.79;27.41;99667.50;5042365;28;20050;-64
2021/05/26 13:18:01;;;;;;;1.48;0.95;;;;;;;23.30;29.26;99669.63;5030544;28;20053;-64
2021/05/26 13:20:30;;;;;;;1.63;0.93;;;;;;;23.02;30.14;99670.72;5040620;28;20068;-64
2021/05/26 13:22:59;;;;;;;1.38;0.90;;;;;;;22.33;31.04;99669.56;5042948;28;20060;-64
2021/05/26 13:25:27;;;;;;;1.52;1.10;;;;;;;22.12;31.16;99665.59;5039309;28;20049;-64
2021/05/26 13:27:55;;;;;;;1.50;1.02;;;;;;;21.19;32.27;99675.16;5030675;28;20050;-64
2021/05/26 13:30:23;;;;;;;1.92;1.20;;;;;;;20.70;33.71;99675.97;5030445;28;20065;-64
2021/05/26 13:32:50;;;;;;;7.22;3.30;;;;;;;20.32;35.34;99679.13;5032418;28;20485;-64
2021/05/26 13:35:17;;;;;;;7.78;2.72;;;;;;;19.86;37.82;99677.78;5031171;28;20057;-64
2021/05/26 13:37:47;;;;;;;2.65;1.20;;;;;;;19.41;39.07;99693.22;5033143;28;20050;-64
2021/05/26 13:40:15;;;;;;;2.00;1.00;;;;;;;18.64;39.57;99702.25;5028513;28;20061;-64
2021/05/26 13:42:43;;;;;;;1.90;1.10;;;;;;;18.10;42.36;99702.88;5028618;28;20597;-64
2021/05/26 13:45:11;;;;;;;1.63;0.80;;;;;;;17.70;41.77;99693.09;5032367;28;20056;-64
2021/05/26 13:47:38;;;;;;;1.40;0.90;;;;;;;17.34;42.16;99696.19;5031427;28;20385;-64
2021/05/26 13:50:07;;;;;;;1.85;0.80;;;;;;;16.62;44.84;99719.50;5032698;28;20437;-64
2021/05/26 13:52:34;;;;;;;1.65;0.95;;;;;;;16.23;45.69;99711.13;5032020;28;20056;-64
2021/05/26 13:55:02;;;;;;;2.17;0.88;;;;;;;16.13;45.22;99712.56;5031067;28;20053;-64
2021/05/26 13:57:29;;;;;;;3.03;1.30;;;;;;;15.79;45.29;99717.06;5030123;28;20076;-64
2021/05/26 13:59:56;;;;;;;2.83;0.90;;;;;;;15.34;46.03;99722.06;5032131;28;20054;-64
2021/05/26 14:02:23;;;;;;;4.43;1.23;;;;;;;15.48;46.34;99721.59;5032819;28;20057;-64
2021/05/26 14:04:50;;;;;;;1.92;0.90;;;;;;;15.35;46.51;99725.66;5031711;28;20049;-64
2021/05/26 14:07:17;;;;;;;1.85;1.00;;;;;;;15.52;46.85;99721.66;5031299;28;20414;-64
2021/05/26 14:09:44;;;;;;;2.55;1.00;;;;;;;15.67;46.36;99712.38;5022880;28;20072;-64
2021/05/26 14:12:12;;;;;;;2.30;1.10;;;;;;;16.36;45.12;99709.81;5029658;28;20057;-64
2021/05/26 14:14:38;;;;;;;1.85;1.40;;;;;;;17.24;43.51;99708.13;5020020;28;20061;-64
2021/05/26 14:17:05;;;;;;;2.65;1.20;;;;;;;17.97;41.46;99703.13;5029664;28;20075;-64
2021/05/26 14:19:32;;;;;;;3.22;1.20;;;;;;;18.30;40.67;99703.53;5022903;28;20065;-64
2021/05/26 14:21:59;;;;;;;1.80;1.05;;;;;;;18.58;41.25;99705.81;5028622;28;20053;-64
2021/05/26 14:24:28;;;;;;;2.53;1.40;;;;;;;18.52;41.56;99688.44;5024814;28;20056;-64
2021/05/26 14:26:55;;;;;;;2.13;1.20;;;;;;;18.83;41.61;99704.06;5029684;28;20049;-64
2021/05/26 14:29:22;;;;;;;3.38;1.50;;;;;;;18.49;41.89;99703.31;5027090;28;20502;-64
2021/05/26 14:31:49;;;;;;;2.08;1.30;;;;;;;18.83;41.99;99712.53;5028491;28;20510;-65
2021/05/26 14:34:16;;;;;;;4.20;1.23;;;;;;;18.79;42.15;99716.53;5021450;28;20074;-65
2021/05/26 14:36:45;;;;;;;2.50;1.52;;;;;;;18.62;43.17;99718.75;5030989;28;20058;-64
2021/05/26 14:39:14;;;;;;;5.85;2.40;;;;;;;18.33;43.64;99792.94;5028681;28;20501;-64
2021/05/26 14:41:43;;;;;;;4.50;3.35;;;;;;;17.44;49.08;99808.16;5029697;28;20437;-64
2021/05/26 14:44:11;;;;;;;7.47;4.38;;;;;;;16.59;52.31;99801.81;5027991;28;20049;-65
2021/05/26 14:46:39;;;;;;;7.88;5.00;;;;;;;15.86;54.24;99809.09;5017557;28;20046;-64
2021/05/26 14:49:06;;;;;;;8.75;6.65;;;;;;;14.85;61.46;99811.38;5021781;28;20057;-64
2021/05/26 14:51:33;;;;;;;11.10;8.00;;;;;;;14.53;64.18;99792.50;5015554;28;20058;-65
2021/05/26 14:54:00;;;;;;;7.05;6.28;;;;;;;14.25;64.52;99794.47;5021951;28;20054;-65
2021/05/26 14:56:27;;;;;;;9.45;5.68;;;;;;;14.15;64.36;99793.81;5017878;28;20062;-64
2021/05/26 14:58:54;;;;;;;9.50;6.00;;;;;;;14.30;64.33;99794.19;5016431;28;20414;-63
2021/05/26 15:01:25;;;;;;;10.48;5.88;;;;;;;14.19;64.03;99791.94;5015175;28;20053;-63
2021/05/26 15:03:54;;;;;;;8.45;6.18;;;;;;;14.31;64.01;99798.66;5025784;28;20042;-63
2021/05/26 15:06:22;;;;;;;9.20;6.03;;;;;;;14.46;63.42;99792.28;5022315;28;20513;-64
2021/05/26 15:08:49;;;;;;;11.00;6.20;;;;;;;14.48;62.99;99795.53;5024995;28;20052;-63
2021/05/26 15:11:16;;;;;;;7.68;5.50;;;;;;;14.52;62.47;99790.03;5020344;28;20099;-62
2021/05/26 15:13:47;;;;;;;7.50;6.22;;;;;;;14.49;63.68;99791.56;5016082;28;20414;-63
2021/05/26 15:16:14;;;;;;;5.05;4.25;;;;;;;14.31;61.87;99791.06;5014946;28;20069;-63
2021/05/26 15:18:41;;;;;;;4.82;4.43;;;;;;;14.44;61.42;99769.41;5032039;28;20061;-63
2021/05/26 15:21:09;;;;;;;4.90;4.50;;;;;;;14.55;61.93;99761.28;5031865;28;20056;-63
2021/05/26 15:23:36;;;;;;;6.70;4.55;;;;;;;15.14;61.71;99754.03;5024551;28;20054;-64
2021/05/26 15:26:04;;;;;;;5.03;3.63;;;;;;;15.35;58.77;99753.72;5013456;28;20537;-63
2021/05/26 15:28:31;;;;;;;6.70;4.50;;;;;;;15.39;61.01;99757.44;5020701;28;20076;-63
2021/05/26 15:30:58;;;;;;;6.78;4.40;;;;;;;15.16;60.48;99765.69;5028856;28;20049;-63
2021/05/26 15:33:25;;;;;;;7.65;4.32;;;;;;;14.81;62.39;99764.44;5028234;28;20068;-62
2021/05/26 15:35:52;;;;;;;6.18;3.35;;;;;;;14.64;61.58;99764.78;5015824;28;20053;-63
2021/05/26 15:38:20;;;;;;;3.92;2.92;;;;;;;14.69;61.93;99769.31;5013650;28;20060;-63
2021/05/26 15:40:47;;;;;;;4.65;3.03;;;;;;;14.66;60.09;99775.59;5013121;28;20050;-63
2021/05/26 15:43:16;;;;;;;5.32;3.50;;;;;;;14.69;59.56;99784.13;5016744;28;20392;-63
2021/05/26 15:45:43;;;;;;;5.38;3.60;;;;;;;14.86;58.41;99785.78;5027920;28;20054;-63
2021/05/26 15:48:10;;;;;;;4.82;3.70;;;;;;;15.03;59.00;99776.19;5022003;28;20061;-63
2021/05/26 15:50:37;;;;;;;5.53;3.30;;;;;;;15.31;57.94;99776.09;5014595;28;20087;-62
2021/05/26 15:53:04;;;;;;;6.72;3.85;;;;;;;15.54;57.78;99776.25;5013003;28;20050;-62
2021/05/26 15:55:34;;;;;;;4.65;3.63;;;;;;;15.64;57.59;99769.25;5012964;28;20053;-63
2021/05/26 15:58:01;;;;;;;5.78;3.78;;;;;;;15.89;59.72;99771.84;5012997;28;20058;-63
2021/05/26 16:00:29;;;;;;;7.60;4.50;;;;;;;16.22;59.78;99780.56;5031549;28;20064;-62
2021/05/26 16:02:57;;;;;;;5.82;3.53;;;;;;;16.67;57.26;99780.25;5019454;28;20061;-63
2021/05/26 16:05:25;;;;;;;6.05;4.13;;;;;;;16.86;56.22;99788.66;5013006;28;20064;-64
2021/05/26 16:07:53;;;;;;;9.00;4.32;;;;;;;16.92;56.85;99777.94;5012962;28;20053;-64
2021/05/26 16:10:21;;;;;;;8.27;3.72;;;;;;;16.88;55.01;99786.28;5012865;28;20064;-64
2021/05/26 16:12:49;;;;;;;4.72;3.75;;;;;;;16.71;55.27;99775.50;5012686;28;20053;-64
2021/05/26 16:15:18;;;;;;;5.28;3.70;;;;;;;16.45;55.39;99785.47;5016237;28;20057;-64
2021/05/26 16:17:45;;;;;;;5.38;3.78;;;;;;;16.18;56.11;99790.94;5024546;28;20041;-64
2021/05/26 16:20:14;;;;;;;6.75;3.75;;;;;;;15.97;57.57;99790.47;5027630;28;20049;-64
2021/05/26 16:22:41;;;;;;;5.53;4.20;;;;;;;15.79;59.47;99810.56;5029071;28;20049;-64
2021/05/26 16:25:12;;;;;;;6.65;4.80;;;;;;;15.63;61.53;99801.31;5016529;28;20475;-64
2021/05/26 16:27:40;;;;;;;6.40;4.07;;;;;;;15.43;61.81;99795.66;5020826;28;20049;-64
2021/05/26 16:30:10;;;;;;;5.78;4.55;;;;;;;15.34;60.40;99797.00;5030674;28;20498;-64
2021/05/26 16:32:37;;;;;;;8.52;6.03;;;;;;;14.56;65.97;99802.19;5030355;28;20053;-64
2021/05/26 16:35:06;;;;;;;10.90;8.23;;;;;;;14.31;68.93;99787.44;5028020;28;20045;-64
2021/05/26 16:37:33;;;;;;;10.27;9.23;;;;;;;14.38;70.34;99782.03;5024284;28;20049;-64
2021/05/26 16:40:00;;;;;;;9.88;7.72;;;;;;;14.54;70.10;99788.50;5018127;28;20065;-63
2021/05/26 16:42:27;;;;;;;8.02;7.22;;;;;;;14.72;68.84;99785.38;5028660;28;20054;-63
2021/05/26 16:44:54;;;;;;;8.45;6.80;;;;;;;14.94;67.50;99793.19;5029168;28;20057;-63